ADDS METAR Data INFO
IDs: Format: Raw Decoded Include TAF

Data at: 0222 UTC 14 Dec 2017

KMZZ 140215Z AUTO 29028G37KT 10SM BKN024 OVC030 00/M03 A2948 RMK AO2 T00021031
KMZZ 140155Z AUTO 29027G39KT 10SM BKN024 OVC033 01/M03 A2947 RMK AO2 T00081028
KMZZ 140135Z AUTO 29030G39KT 10SM BKN022 OVC028 01/M02 A2945 RMK AO2 T00131017
KMZZ 140115Z AUTO 30025G35KT 10SM OVC020 02/M01 A2943 RMK AO2 T00191008
KMZZ 140055Z AUTO 28024G30KT 10SM BKN022 OVC029 02/00 A2941 RMK AO2 T00231003
KMZZ 140035Z AUTO 28026G34KT 10SM BKN024 OVC029 03/00 A2939 RMK AO2 T00250003
KMZZ 140015Z AUTO 27023G28KT 7SM OVC022 02/01 A2937 RMK AO2 T00240005
KMZZ 132355Z AUTO 26022KT 10SM BKN020 OVC028 02/00 A2936 RMK AO2 T00180000 10173 21096
KMZZ 132335Z AUTO 24017G21KT 10SM OVC020 01/00 A2936 RMK AO2 T00121002
KMZZ 132315Z AUTO 23018KT 7SM OVC020 01/00 A2935 RMK AO2 T00101005
KMZZ 132255Z AUTO 24018G24KT 5SM -SN BKN022 OVC029 01/M01 A2936 RMK AO2 T00111011
KMZZ 132235Z AUTO 23017G22KT 7SM UP BKN030 OVC040 01/M01 A2936 RMK AO2 T00101013
KMZZ 132215Z AUTO 23015KT 4SM -SN SCT028 OVC040 01/M01 A2937 RMK AO2 T00071014
KMZZ 132155Z AUTO 22015KT 5SM -SN SCT032 OVC038 01/M01 A2937 RMK AO2 T00051013
KMZZ 132135Z AUTO 23016G21KT 4SM -SN OVC032 01/M01 A2938 RMK AO2 T00051015
KMZZ 132115Z AUTO 24015KT 4SM BR SCT013 BKN026 OVC032 00/M02 A2939 RMK AO2 T00041016
KMZZ 132055Z AUTO 23026G32KT 1 3/4SM -SN BKN013 OVC020 01/M06 A2940 RMK AO2 T00111061
KMZZ 132035Z AUTO 21014G17KT 7SM SCT027 BKN046 OVC070 01/M09 A2939 RMK AO2 T00101088
KMZZ 132015Z AUTO 20015KT 4SM HZ SCT070 SCT080 BKN100 01/M09 A2939 RMK AO2 T00081093
KMZZ 131955Z AUTO 20016G23KT 10SM CLR 01/M10 A2941 RMK AO2 T00071097
KMZZ 131935Z AUTO 21019G25KT 7SM CLR 01/M10 A2943 RMK AO2 T00051100
KMZZ 131915Z AUTO 21017G24KT 3SM HZ CLR 00/M10 A2944 RMK AO2 T00001103
KMZZ 131855Z AUTO 20020G27KT 10SM CLR 00/M11 A2943 RMK AO2 T10011107
KMZZ 131835Z AUTO 18023G28KT 4SM HZ CLR 00/M11 A2943 RMK AO2 T10031111
KMZZ 131815Z AUTO 18021G29KT 3SM HZ CLR M01/M11 A2944 RMK AO2 T10061114
KMZZ 131755Z AUTO 18020G25KT 10SM SCT090 M01/M12 A2948 RMK AO2 T10091117 10173 21096
KMZZ 131735Z AUTO 19021G28KT 1 3/4SM HZ OVC090 M01/M12 A2954 RMK AO2 T10111120
KMZZ 131715Z AUTO 18017G22KT 10SM OVC090 M02/M12 A2956 RMK AO2 T10181120
KMZZ 131655Z AUTO 19015G22KT 2 1/2SM -SN OVC090 M02/M12 A2958 RMK AO2 VIS 1 1/4V5 T10241123
KMZZ 131635Z AUTO 19016G23KT 7SM OVC090 M02/M12 A2962 RMK AO2 T10251125
KMZZ 131615Z AUTO 19016G26KT 3SM -SN OVC090 M03/M12 A2963 RMK AO2 T10281123
KMZZ 131555Z AUTO 18013G21KT 10SM BKN080 OVC100 M03/M12 A2967 RMK AO2 T10331119
KMZZ 131535Z AUTO 18017G20KT 10SM SCT037 OVC080 M04/M12 A2969 RMK AO2 T10361121
KMZZ 131515Z AUTO 19016G20KT 10SM OVC070 M04/M12 A2972 RMK AO2 T10401122
KMZZ 131455Z AUTO 19014KT 10SM OVC070 M04/M12 A2974 RMK AO2 T10441125
KMZZ 131435Z AUTO 19014G18KT 10SM OVC070 M05/M12 A2975 RMK AO2 T10481124
KMZZ 131415Z AUTO 18013G18KT 7SM SCT070 OVC080 M05/M12 A2975 RMK AO2 T10521122
KMZZ 131355Z AUTO 18014KT 1 1/2SM -SN BKN070 OVC080 M05/M12 A2976 RMK AO2 T10551120
KMZZ 131335Z AUTO 18010KT 2SM -SN OVC080 M06/M12 A2979 RMK AO2 VIS 1V5 T10581122
KMZZ 131315Z AUTO 19011KT 7SM OVC080 M06/M12 A2981 RMK AO2 T10611120
KMZZ 131255Z AUTO 19010KT 10SM OVC080 M06/M12 A2982 RMK AO2 T10631121
KMZZ 131235Z AUTO 19010KT 10SM OVC080 M06/M12 A2983 RMK AO2 T10641121
KMZZ 131215Z AUTO 19010KT 10SM OVC080 M07/M12 A2984 RMK AO2 T10661121
KMZZ 131155Z AUTO 19010KT 10SM OVC080 M07/M12 A2984 RMK AO2 T10681121 10173 21096
KMZZ 131135Z AUTO 19009KT 10SM OVC080 M07/M12 A2985 RMK AO2 T10701121
KMZZ 131115Z AUTO 19008KT 10SM OVC080 M07/M12 A2985 RMK AO2 T10711121
KMZZ 131055Z AUTO 20008KT 4SM -SN SCT070 OVC080 M07/M12 A2987 RMK AO2 T10741122
KMZZ 131035Z AUTO 20008KT 5SM -SN SCT039 BKN055 OVC070 M07/M12 A2988 RMK AO2 T10751123
KMZZ 131015Z AUTO 21010KT 10SM OVC041 M08/M12 A2988 RMK AO2 T10771121
KMZZ 130955Z AUTO 21008KT 7SM BKN043 OVC050 M08/M12 A2989 RMK AO2 T10791121
KMZZ 130935Z AUTO 22008KT 4SM HZ BKN049 OVC055 M08/M12 A2990 RMK AO2 T10811120
KMZZ 130915Z AUTO 21008KT 4SM -SN BKN055 OVC090 M08/M12 A2991 RMK AO2 T10841120
KMZZ 130855Z AUTO 21008KT 5SM HZ SCT055 OVC090 M09/M12 A2991 RMK AO2 T10861118
KMZZ 130835Z AUTO 22007KT 7SM BKN055 BKN065 OVC090 M09/M12 A2992 RMK AO2 T10871121
KMZZ 130815Z AUTO 23006KT 3SM -SN SCT065 M09/M12 A2992 RMK AO2 T10871123
KMZZ 130755Z AUTO 22006KT 4SM -SN SCT065 M08/M12 A2991 RMK AO2 T10811125
KMZZ 130735Z AUTO 25005KT 5SM -SN CLR M08/M12 A2993 RMK AO2 T10781125
KMZZ 130715Z AUTO 26008KT 10SM CLR M08/M12 A2994 RMK AO2 T10771122
KMZZ 130655Z AUTO 26007KT 10SM CLR M08/M12 A2994 RMK AO2 T10771123
KMZZ 130635Z AUTO 27005KT 10SM SCT080 BKN090 M08/M12 A2994 RMK AO2 T10781121
KMZZ 130615Z AUTO 28008KT 10SM OVC080 M08/M12 A2995 RMK AO2 T10811120
KMZZ 130555Z AUTO 28008KT 4SM -SN SCT080 M08/M12 A2996 RMK AO2 T10831122 10173 21096 401731096
KMZZ 130535Z AUTO 28009KT 10SM SCT085 M08/M12 A2995 RMK AO2 T10851123
KMZZ 130515Z AUTO 27008KT 7SM OVC085 M08/M12 A2997 RMK AO2 T10851120
KMZZ 130455Z AUTO 29009KT 10SM OVC085 M08/M12 A2998 RMK AO2 T10851120
KMZZ 130435Z AUTO 28010KT 10SM BKN085 M09/M12 A2998 RMK AO2 T10881120
KMZZ 130415Z AUTO 28009KT 10SM SCT085 M09/M12 A2999 RMK AO2 T10901120
KMZZ 130355Z AUTO 28007KT 10SM CLR M09/M12 A2999 RMK AO2 T10911121
KMZZ 130335Z AUTO 28007KT 10SM CLR M09/M12 A2999 RMK AO2 T10911123
KMZZ 130315Z AUTO 27006KT 10SM CLR M09/M13 A2999 RMK AO2 T10911126
KMZZ 130255Z AUTO 27007KT 10SM CLR M09/M13 A3000 RMK AO2 T10931129
KMZZ 130235Z AUTO 24005KT 10SM CLR M10/M13 A3000 RMK AO2 T10961130
KMZZ 130215Z AUTO 00000KT 10SM CLR M09/M13 A3000 RMK AO2 T10931130
KMZZ 130155Z AUTO 31004KT 10SM CLR M09/M13 A3001 RMK AO2 T10901131
KMZZ 130135Z AUTO 32004KT 10SM CLR M09/M13 A3001 RMK AO2 T10891131
KMZZ 130115Z AUTO 30004KT 7SM CLR M09/M13 A3001 RMK AO2 T10871130
KMZZ 130055Z AUTO 30004KT 5SM HZ CLR M09/M13 A3001 RMK AO2 T10861130
KMZZ 130035Z AUTO 00000KT 10SM CLR M08/M13 A3000 RMK AO2 T10811132
KMZZ 130015Z AUTO 32003KT 10SM CLR M08/M13 A3000 RMK AO2 T10761135
KMZZ 122355Z AUTO 33006KT 10SM CLR M07/M13 A3000 RMK AO2 T10751133 10173 21095
KMZZ 122335Z AUTO 32010KT 10SM CLR M07/M13 A3000 RMK AO2 T10721132
KMZZ 122315Z AUTO 32009KT 5SM HZ CLR M07/M13 A3000 RMK AO2 T10701130
KMZZ 122255Z AUTO 32011G17KT 5SM HZ CLR M07/M13 A3000 RMK AO2 T10661130
KMZZ 122235Z AUTO 32013G17KT 4SM HZ SCT040 M06/M13 A2999 RMK AO2 T10611129
KMZZ 122215Z AUTO 32014G19KT 10SM OVC040 M05/M13 A2999 RMK AO2 T10551131
KMZZ 122155Z AUTO 32013KT 10SM BKN042 M05/M13 A2998 RMK AO2 T10541132
KMZZ 122135Z AUTO 32014G21KT 3SM HZ BKN040 M05/M13 A2998 RMK AO2 T10501131
KMZZ 122115Z AUTO 31016G21KT 7SM OVC042 M05/M13 A2998 RMK AO2 T10471132
KMZZ 122055Z AUTO 31018G24KT 7SM OVC042 M04/M13 A2997 RMK AO2 T10441126
KMZZ 122035Z AUTO 31016G20KT 10SM BKN040 M05/M13 A2997 RMK AO2 T10491126
KMZZ 122015Z AUTO 32015G20KT 10SM BKN036 BKN044 M05/M12 A2997 RMK AO2 T10481124
KMZZ 121955Z AUTO 32015G27KT 2 1/2SM HZ OVC038 M04/M12 A2997 RMK AO2 VIS 1V5 T10431118
KMZZ 121935Z AUTO 30018G22KT 10SM OVC038 M04/M12 A2997 RMK AO2 T10431116
KMZZ 121915Z AUTO 31017KT 10SM SCT034 OVC042 M04/M11 A2997 RMK AO2 T10431115
KMZZ 121855Z AUTO 31020G25KT 1 3/4SM HZ OVC032 M04/M11 A2997 RMK AO2 T10441111
KMZZ 121835Z AUTO 31021G29KT 4SM HZ BKN030 BKN037 OVC060 M04/M10 A2997 RMK AO2 T10421105
KMZZ 121815Z AUTO 31018G25KT 10SM BKN030 BKN035 OVC060 M04/M10 A2997 RMK AO2 T10421105
KMZZ 121755Z AUTO 30019G23KT 4SM HZ BKN031 BKN035 OVC050 M04/M10 A2998 RMK AO2 T10411103 10173 21095
KMZZ 121735Z AUTO 31016G23KT 4SM -SN BKN028 BKN032 OVC050 M04/M10 A2998 RMK AO2 T10441098
KMZZ 121715Z AUTO 31021G24KT 10SM OVC026 M04/M10 A2999 RMK AO2 T10451098
KMZZ 121655Z AUTO 31020G23KT 10SM SCT020 OVC026 M05/M10 A3000 RMK AO2 T10501098
KMZZ 121635Z AUTO 30016G23KT 7SM SCT016 BKN021 OVC038 M05/M09 A3000 RMK AO2 T10541091
KMZZ 121615Z AUTO 31017G22KT 10SM BKN018 BKN027 OVC032 M05/M09 A3000 RMK AO2 T10541087
KMZZ 121555Z AUTO 29017G21KT 7SM BKN018 BKN027 OVC032 M05/M08 A3000 RMK AO2 T10531081
KMZZ 121535Z AUTO 30017G22KT 3SM -SN SCT016 BKN023 OVC031 M05/M08 A2999 RMK AO2 T10541076
KMZZ 121515Z AUTO 30017G23KT 7SM UP SCT016 BKN020 OVC025 M05/M08 A2999 RMK AO2 T10471078
KMZZ 121455Z AUTO 31013G23KT 2 1/2SM -SN SCT020 BKN024 OVC060 M04/M08 A2998 RMK AO2 VIS 1 1/4V5 T10451080
KMZZ 121435Z AUTO 32015G22KT 3SM HZ BKN024 BKN031 OVC060 M04/M08 A2998 RMK AO2 T10451080